createdAt,value
2018-11-14T00:02:20.746Z,19.66
2018-11-14T00:08:15.738Z,17.2
2018-11-14T00:14:10.828Z,16.08
2018-11-14T00:20:05.757Z,17.17
2018-11-14T00:26:00.757Z,14.23
2018-11-14T00:31:55.752Z,20.89
2018-11-14T00:37:50.762Z,14.05
2018-11-14T00:43:45.762Z,19.59
2018-11-14T00:49:40.847Z,21.54
2018-11-14T00:55:35.764Z,18.99
2018-11-14T01:01:30.834Z,15.3
2018-11-14T01:07:25.779Z,11.38
2018-11-14T01:13:21.202Z,12.46
2018-11-14T01:19:15.803Z,11.72
2018-11-14T01:25:10.785Z,12.81
2018-11-14T01:31:05.759Z,13.96
2018-11-14T01:37:00.802Z,14.55
2018-11-14T01:42:55.809Z,10.84
2018-11-14T01:48:50.779Z,11.48
2018-11-14T01:54:45.776Z,10.81
2018-11-14T02:00:40.846Z,15.53
2018-11-14T02:06:35.795Z,12.25
2018-11-14T02:12:30.782Z,11.7
2018-11-14T02:18:25.796Z,16.6
2018-11-14T02:24:20.802Z,10.42
2018-11-14T02:30:15.797Z,16.71
2018-11-14T02:36:10.787Z,16.67
2018-11-14T02:42:06.398Z,14.81
2018-11-14T02:48:00.788Z,14.95
2018-11-14T02:53:55.804Z,24.46
2018-11-14T02:59:50.781Z,18.9
2018-11-14T03:05:45.865Z,23.3
2018-11-14T03:11:40.805Z,22.85
2018-11-14T03:17:35.831Z,31.31
2018-11-14T03:23:30.802Z,27.64
2018-11-14T03:29:25.807Z,24.48
2018-11-14T03:35:20.818Z,32.49
2018-11-14T03:41:15.813Z,26.6
2018-11-14T03:47:10.844Z,24.47
2018-11-14T03:53:05.832Z,29.63
2018-11-14T03:59:00.822Z,28.47
2018-11-14T04:04:55.813Z,28.41
2018-11-14T04:10:50.812Z,37.27
2018-11-14T04:16:45.830Z,30.27
2018-11-14T04:22:40.837Z,31.81
2018-11-14T04:28:35.817Z,31.43
2018-11-14T04:34:30.890Z,36.46
2018-11-14T04:40:25.841Z,39.16
2018-11-14T04:46:20.833Z,30.86
2018-11-14T04:52:15.820Z,31.23
2018-11-14T04:58:10.857Z,38.52
2018-11-14T05:04:05.810Z,33.44
2018-11-14T05:10:00.861Z,36.63
2018-11-14T05:15:55.842Z,44.91
2018-11-14T05:21:50.833Z,40.59
2018-11-14T05:27:45.854Z,37.23
2018-11-14T05:33:40.844Z,46.19
2018-11-14T05:39:35.918Z,50.26
2018-11-14T05:45:31.603Z,49.22
2018-11-14T05:51:25.841Z,43.55
2018-11-14T05:57:20.827Z,36.53
2018-11-14T06:03:15.879Z,37.51
2018-11-14T06:09:10.837Z,37.89
2018-11-14T06:15:05.939Z,39.9
2018-11-14T06:21:00.849Z,33.51
2018-11-14T06:26:55.901Z,31.86
2018-11-14T06:32:50.951Z,37.03
2018-11-14T06:38:45.872Z,26.25
2018-11-14T06:44:40.857Z,37.67
2018-11-14T06:50:35.894Z,31.81
2018-11-14T06:56:30.926Z,30.31
2018-11-14T07:02:27.321Z,31.79
2018-11-14T07:08:20.867Z,31.72
2018-11-14T07:14:15.866Z,31.4
2018-11-14T07:20:10.892Z,27.6
2018-11-14T07:26:05.858Z,33.04
2018-11-14T07:32:00.956Z,34.5
2018-11-14T07:37:55.961Z,37.27
2018-11-14T07:43:50.901Z,39.15
2018-11-14T07:49:45.879Z,38.79
2018-11-14T07:55:40.915Z,41.97
2018-11-14T08:01:35.910Z,46.46
2018-11-14T08:07:30.966Z,38.46
2018-11-14T08:13:25.897Z,56.42
2018-11-14T08:19:20.908Z,44.12
2018-11-14T08:25:16.018Z,44.4
2018-11-14T08:31:10.886Z,44.71
2018-11-14T08:37:05.896Z,53.94
2018-11-14T08:43:00.942Z,49.4
2018-11-14T08:48:55.909Z,47.06
2018-11-14T08:54:50.898Z,48.61
2018-11-14T09:00:45.903Z,55.34
2018-11-14T09:06:40.885Z,58.53
2018-11-14T09:12:36.036Z,58.18
2018-11-14T09:18:30.944Z,71.06
2018-11-14T09:24:25.897Z,82.64
2018-11-14T09:30:20.966Z,76.8
2018-11-14T09:36:15.926Z,74.38
2018-11-14T09:42:10.932Z,85.06
2018-11-14T09:48:05.905Z,83.4
2018-11-14T09:54:00.908Z,77.81
2018-11-14T09:59:55.920Z,80.95
2018-11-14T10:05:50.941Z,71.08
2018-11-14T10:11:45.913Z,67.63
2018-11-14T10:17:40.955Z,75.97
2018-11-14T10:23:35.929Z,76.61
2018-11-14T10:29:30.934Z,77.37
2018-11-14T10:35:25.933Z,83.49
2018-11-14T10:41:20.923Z,85.23
2018-11-14T10:47:15.916Z,79.4
2018-11-14T10:53:10.919Z,72.33
2018-11-14T10:59:05.995Z,73.82
2018-11-14T11:05:00.954Z,71.64
2018-11-14T11:10:55.938Z,66.86
2018-11-14T11:16:50.956Z,64.62
2018-11-14T11:22:45.985Z,67.78
2018-11-14T11:28:40.944Z,56.95
2018-11-14T11:34:35.969Z,62.53
2018-11-14T11:40:30.958Z,52.4
2018-11-14T11:46:25.971Z,59.23
2018-11-14T11:52:20.939Z,59.27
2018-11-14T11:58:15.950Z,57.68
2018-11-14T12:04:10.971Z,56.81
2018-11-14T12:10:05.958Z,56.11
2018-11-14T12:16:01.063Z,52.27
2018-11-14T12:21:56.664Z,48.84
2018-11-14T12:27:51.044Z,45.79
2018-11-14T12:33:46.007Z,45.13
2018-11-14T12:39:40.974Z,43.45
2018-11-14T12:45:36.020Z,44.86
2018-11-14T12:51:31.004Z,46.81
2018-11-14T12:57:26.043Z,39.59
2018-11-14T13:03:20.995Z,40.86
2018-11-14T13:09:16.005Z,36.37
2018-11-14T13:15:11.000Z,35.59
2018-11-14T13:21:05.980Z,40.53
2018-11-14T13:27:00.998Z,34.93
2018-11-14T13:32:56.001Z,36.5
2018-11-14T13:38:51.034Z,37.47
2018-11-14T13:44:46.025Z,41.23
2018-11-14T13:50:41.279Z,38.54
2018-11-14T13:56:36.031Z,45.98
2018-11-14T14:02:31.004Z,38.63
2018-11-14T14:08:26.001Z,38.66
2018-11-14T14:14:20.997Z,32.8
2018-11-14T14:20:16.009Z,37.73
2018-11-14T14:26:10.987Z,27.07
2018-11-14T14:32:06.011Z,27.48
2018-11-14T14:38:01.002Z,26.17
2018-11-14T14:43:56.024Z,29.37
2018-11-14T14:49:51.008Z,27.44
2018-11-14T14:55:46.011Z,33.33
2018-11-14T15:01:41.108Z,29.87
2018-11-14T15:07:36.070Z,26.94
2018-11-14T15:13:31.023Z,26.92
2018-11-14T15:19:26.027Z,27.99
2018-11-14T15:25:21.071Z,32.71
2018-11-14T15:31:16.024Z,33.46
2018-11-14T15:37:11.011Z,28.09
2018-11-14T15:43:06.042Z,31.62
2018-11-14T15:49:01.031Z,55.08
2018-11-14T15:54:56.049Z,38.93
2018-11-14T16:00:51.040Z,31.85
2018-11-14T16:06:46.040Z,37.74
2018-11-14T16:12:41.074Z,27.74
2018-11-14T16:18:36.116Z,32.1
2018-11-14T16:24:31.111Z,33.8
2018-11-14T16:30:26.072Z,29.35
2018-11-14T16:36:21.068Z,29.38
2018-11-14T16:42:16.085Z,32.51
2018-11-14T16:48:11.041Z,29.71
2018-11-14T16:54:06.053Z,42.93
2018-11-14T17:00:01.055Z,44.13
2018-11-14T17:05:56.070Z,33.27
2018-11-14T17:11:51.059Z,37.01
2018-11-14T17:17:46.066Z,37.35
2018-11-14T17:23:41.071Z,36.45
2018-11-14T17:29:36.082Z,31.55
2018-11-14T17:35:31.103Z,29.44
2018-11-14T17:41:26.228Z,28.98
2018-11-14T17:47:21.076Z,28.44
2018-11-14T17:53:16.086Z,31.33
2018-11-14T17:59:11.081Z,30.04
2018-11-14T18:05:06.105Z,30.3
2018-11-14T18:11:01.084Z,40.28
2018-11-14T18:16:56.088Z,47.59
2018-11-14T18:22:51.164Z,38.33
2018-11-14T18:28:46.129Z,32.32
2018-11-14T18:34:41.141Z,36.53
2018-11-14T18:40:36.076Z,28.78
2018-11-14T18:46:31.100Z,36.72
2018-11-14T18:52:26.088Z,31.71
2018-11-14T18:58:21.098Z,32.2
2018-11-14T19:04:16.124Z,41.83
2018-11-14T19:10:11.103Z,36.52
2018-11-14T19:16:06.107Z,33.38
2018-11-14T19:22:01.097Z,34.94
2018-11-14T19:27:56.178Z,27.11
2018-11-14T19:33:51.134Z,39.72
2018-11-14T19:39:46.126Z,36.19
2018-11-14T19:45:41.111Z,33.18
2018-11-14T19:51:36.157Z,34.27
2018-11-14T19:57:31.101Z,36.46
2018-11-14T20:03:26.095Z,32.17
2018-11-14T20:09:21.155Z,27.21
2018-11-14T20:15:16.120Z,28.04
2018-11-14T20:21:11.135Z,27.11
2018-11-14T20:27:06.133Z,24.36
2018-11-14T20:33:01.179Z,25.83
2018-11-14T20:38:56.161Z,25.37
2018-11-14T20:44:51.129Z,27.36
2018-11-14T20:50:46.142Z,28.5
2018-11-14T20:56:41.160Z,23.94
2018-11-14T21:02:36.142Z,22.6
2018-11-14T21:08:31.147Z,26.86
2018-11-14T21:14:26.139Z,27.31
2018-11-14T21:20:21.142Z,28.1
2018-11-14T21:26:16.176Z,23.27
2018-11-14T21:32:11.156Z,20.81
2018-11-14T21:38:06.208Z,25.94
2018-11-14T21:44:01.224Z,21.11
2018-11-14T21:49:56.170Z,23.73
2018-11-14T21:55:51.139Z,20.58
2018-11-14T22:01:46.166Z,21.3
2018-11-14T22:07:41.154Z,17.67
2018-11-14T22:13:36.160Z,23.33
2018-11-14T22:19:31.243Z,20.82
2018-11-14T22:25:26.149Z,23.04
2018-11-14T22:31:21.170Z,25.9
2018-11-14T22:37:16.190Z,23.93
2018-11-14T22:43:11.184Z,22.42
2018-11-14T22:49:06.198Z,19.83
2018-11-14T22:55:01.164Z,20.72
2018-11-14T23:00:56.219Z,20.19
2018-11-14T23:06:51.156Z,14.22
2018-11-14T23:12:46.181Z,17.27
2018-11-14T23:18:41.184Z,16.61
2018-11-14T23:24:36.240Z,19.87
2018-11-14T23:30:31.188Z,16.97
2018-11-14T23:36:26.186Z,21.83
2018-11-14T23:42:21.203Z,15.92
2018-11-14T23:48:16.276Z,14.94
2018-11-14T23:54:11.187Z,12.6
